Time;durP1;ratioP1;P1;durP2;ratioP2;P2;SDS_P1;SDS_P2;PMS_P1;PMS_P2;Temp;Humidity;BMP_temperature;BMP_pressure;BME280_temperature;BME280_humidity;BME280_pressure;Samples;Min_cycle;Max_cycle;Signal;HPM_P1;HPM_P2
2022/07/28 00:00:44;;;;;;;2.20;1.17;;;13.60;94.50;;;;;;4997410;28;20041;-81
2022/07/28 00:03:10;;;;;;;3.35;1.38;;;13.60;94.60;;;;;;5020575;28;20220;-81
2022/07/28 00:05:36;;;;;;;1.63;1.20;;;13.60;94.80;;;;;;5045136;28;20104;-81
2022/07/28 00:08:02;;;;;;;2.10;1.10;;;13.60;95.00;;;;;;5015870;28;20508;-82
2022/07/28 00:10:28;;;;;;;1.60;1.02;;;13.60;95.30;;;;;;5047003;28;20067;-82
2022/07/28 00:12:53;;;;;;;2.97;1.00;;;13.60;95.60;;;;;;5037953;28;20049;-81
2022/07/28 00:15:19;;;;;;;1.85;1.20;;;13.60;95.60;;;;;;5036739;28;20094;-80
2022/07/28 00:17:45;;;;;;;1.55;1.02;;;13.60;95.60;;;;;;5043803;28;20036;-80
2022/07/28 00:20:11;;;;;;;2.80;1.02;;;13.60;95.80;;;;;;5012766;28;20041;-82
2022/07/28 00:22:43;;;;;;;1.85;0.93;;;13.50;95.90;;;;;;5048143;28;20043;-81
2022/07/28 00:25:10;;;;;;;2.05;0.90;;;13.50;96.20;;;;;;5032300;28;20589;-81
2022/07/28 00:27:36;;;;;;;1.27;1.00;;;13.50;96.20;;;;;;5008709;28;20108;-82
2022/07/28 00:30:06;;;;;;;2.45;0.90;;;13.40;96.50;;;;;;5024853;28;20033;-80
2022/07/28 00:32:32;;;;;;;1.20;0.95;;;13.40;96.70;;;;;;5034362;28;20104;-83
2022/07/28 00:34:58;;;;;;;3.65;1.08;;;13.40;96.60;;;;;;5036919;28;20031;-83
2022/07/28 00:37:24;;;;;;;2.63;1.17;;;13.40;96.60;;;;;;5032057;28;20450;-83
2022/07/28 00:39:50;;;;;;;3.17;1.00;;;13.30;96.90;;;;;;5026511;28;20042;-83
2022/07/28 00:42:19;;;;;;;1.25;1.08;;;13.30;97.10;;;;;;5044144;28;20053;-83
2022/07/28 00:44:46;;;;;;;1.58;1.30;;;13.20;97.60;;;;;;5047802;28;20551;-83
2022/07/28 00:47:12;;;;;;;1.08;0.88;;;13.20;97.50;;;;;;5035565;28;20037;-83
2022/07/28 00:49:38;;;;;;;1.88;1.10;;;13.20;97.80;;;;;;5059259;28;20033;-82
2022/07/28 00:52:07;;;;;;;3.90;1.35;;;13.20;97.60;;;;;;5032994;28;20029;-82
2022/07/28 00:54:33;;;;;;;1.20;1.10;;;13.20;97.80;;;;;;5050717;28;20028;-84
2022/07/28 00:56:59;;;;;;;4.60;1.10;;;13.20;97.90;;;;;;5057755;28;20044;-82
2022/07/28 00:59:25;;;;;;;1.80;1.10;;;13.20;97.70;;;;;;5054316;28;20047;-81
2022/07/28 01:01:51;;;;;;;1.67;1.02;;;13.20;98.30;;;;;;5051108;28;20507;-82
2022/07/28 01:04:18;;;;;;;1.35;1.23;;;13.10;98.40;;;;;;5052882;28;20075;-81
2022/07/28 01:07:06;;;;;;;6.50;1.10;;;13.10;98.50;;;;;;5051545;28;20037;-80
2022/07/28 01:09:41;;;;;;;1.23;1.00;;;13.10;98.70;;;;;;5047888;28;20028;-81
2022/07/28 01:12:31;;;;;;;1.40;1.30;;;13.10;98.90;;;;;;5047543;28;20036;-80
2022/07/28 01:15:06;;;;;;;1.20;1.05;;;13.00;98.80;;;;;;5031344;28;20392;-82
2022/07/28 01:17:48;;;;;;;1.30;0.95;;;13.00;99.10;;;;;;5034833;28;20036;-81
2022/07/28 01:20:46;;;;;;;2.25;1.10;;;13.00;99.30;;;;;;5054223;28;20490;-81
2022/07/28 01:23:11;;;;;;;3.92;1.50;;;12.90;99.20;;;;;;5022950;28;20574;-81
2022/07/28 01:26:02;;;;;;;3.72;1.23;;;12.90;99.60;;;;;;5053089;28;20056;-82
2022/07/28 01:28:40;;;;;;;1.17;1.13;;;12.90;99.60;;;;;;5018691;28;20575;-81
2022/07/28 01:31:07;;;;;;;2.75;1.10;;;12.80;99.90;;;;;;5041662;28;20029;-81
2022/07/28 01:33:50;;;;;;;2.25;1.30;;;12.80;99.90;;;;;;5036135;28;20067;-82
2022/07/28 01:36:20;;;;;;;1.58;1.08;;;12.80;99.90;;;;;;4991361;28;20076;-82
2022/07/28 01:38:47;;;;;;;1.63;1.05;;;12.70;99.90;;;;;;5013634;28;20062;-81
2022/07/28 01:41:23;;;;;;;2.17;1.30;;;12.70;99.90;;;;;;5030575;28;20118;-82
2022/07/28 01:44:03;;;;;;;2.15;1.00;;;12.70;99.90;;;;;;5035070;28;20036;-82
2022/07/28 01:46:30;;;;;;;1.40;1.10;;;12.70;99.90;;;;;;5020465;28;20033;-82
2022/07/28 01:48:58;;;;;;;0.93;0.80;;;12.70;99.90;;;;;;5047398;28;20033;-81
2022/07/28 01:51:27;;;;;;;1.55;1.20;;;12.70;99.90;;;;;;5003680;28;20045;-82
2022/07/28 01:53:57;;;;;;;2.53;1.40;;;12.70;99.90;;;;;;5032520;28;20128;-82
2022/07/28 01:56:24;;;;;;;3.72;1.30;;;12.60;99.90;;;;;;5023768;28;20049;-82
2022/07/28 01:58:51;;;;;;;5.78;1.30;;;12.70;99.90;;;;;;5040339;28;20067;-82
2022/07/28 02:01:18;;;;;;;3.15;1.40;;;12.60;99.90;;;;;;5053723;28;20064;-81
2022/07/28 02:03:45;;;;;;;1.27;1.17;;;12.60;99.90;;;;;;5060295;28;20033;-82
2022/07/28 02:06:12;;;;;;;2.85;1.33;;;12.50;99.90;;;;;;5055391;28;20500;-83
2022/07/28 02:08:40;;;;;;;2.50;1.30;;;12.50;99.90;;;;;;5025539;28;20036;-82
2022/07/28 02:13:52;;;;;;;2.63;1.15;;;12.40;99.90;;;;;;5039414;28;20037;-81
2022/07/28 02:16:22;;;;;;;1.63;1.50;;;12.40;99.90;;;;;;5027632;28;20040;-81
2022/07/28 02:18:50;;;;;;;4.55;1.30;;;12.30;99.90;;;;;;5039359;28;20120;-82
2022/07/28 02:21:18;;;;;;;3.47;1.42;;;12.30;99.90;;;;;;5041741;28;20083;-82
2022/07/28 02:23:47;;;;;;;1.60;1.33;;;12.30;99.90;;;;;;5034872;28;20025;-82
2022/07/28 02:26:15;;;;;;;2.88;1.33;;;12.20;99.90;;;;;;5017116;28;20037;-81
2022/07/28 02:28:42;;;;;;;2.17;1.70;;;12.20;99.90;;;;;;5030204;28;20030;-83
2022/07/28 02:31:15;;;;;;;2.53;1.58;;;12.20;99.90;;;;;;5039245;28;20049;-82
2022/07/28 02:33:42;;;;;;;1.77;1.48;;;12.20;99.90;;;;;;5023917;28;20487;-81
2022/07/28 02:36:18;;;;;;;1.40;1.27;;;12.20;99.90;;;;;;5048082;28;20049;-83
2022/07/28 02:38:47;;;;;;;1.40;1.30;;;12.20;99.90;;;;;;5005609;28;20029;-83
2022/07/28 02:41:32;;;;;;;1.55;1.20;;;12.20;99.90;;;;;;5028023;28;20402;-82
2022/07/28 02:44:02;;;;;;;2.25;1.23;;;12.10;99.90;;;;;;5017841;28;20026;-81
2022/07/28 02:46:38;;;;;;;2.05;1.35;;;12.10;99.90;;;;;;5024185;28;20522;-81
2022/07/28 02:49:09;;;;;;;2.55;1.63;;;12.10;99.90;;;;;;5029224;28;20037;-82
2022/07/28 02:51:37;;;;;;;1.58;1.33;;;12.00;99.90;;;;;;5018479;28;20546;-82
2022/07/28 02:54:04;;;;;;;1.30;1.20;;;12.10;99.90;;;;;;5024804;28;20037;-81
2022/07/28 02:56:30;;;;;;;1.08;0.98;;;12.10;99.90;;;;;;5048072;28;20029;-78
2022/07/28 02:58:57;;;;;;;2.50;1.40;;;12.00;99.90;;;;;;5039326;28;20063;-80
2022/07/28 03:01:24;;;;;;;1.38;1.20;;;12.00;99.90;;;;;;5040439;28;20041;-81
2022/07/28 03:03:51;;;;;;;1.58;1.30;;;12.00;99.90;;;;;;5037458;28;20116;-83
2022/07/28 03:06:18;;;;;;;3.05;1.58;;;12.00;99.90;;;;;;5035926;28;20399;-80
2022/07/28 03:08:44;;;;;;;2.85;1.30;;;12.00;99.90;;;;;;5038891;28;20051;-81
2022/07/28 03:11:12;;;;;;;1.40;1.30;;;11.90;99.90;;;;;;5050411;28;20025;-82
2022/07/28 03:13:38;;;;;;;1.45;1.23;;;11.90;99.90;;;;;;5057903;28;20104;-82
2022/07/28 03:16:05;;;;;;;2.60;1.33;;;11.90;99.90;;;;;;5046647;28;20124;-82
2022/07/28 03:18:31;;;;;;;1.50;1.30;;;11.90;99.90;;;;;;5034854;28;20029;-82
2022/07/28 03:20:57;;;;;;;1.35;1.25;;;11.90;99.90;;;;;;5025721;28;20028;-81
2022/07/28 03:23:35;;;;;;;2.17;1.80;;;11.90;99.90;;;;;;5051415;28;20055;-82
2022/07/28 03:26:08;;;;;;;4.45;1.52;;;11.90;99.90;;;;;;5013841;28;20041;-82
2022/07/28 03:28:35;;;;;;;2.75;1.20;;;11.90;99.90;;;;;;5045277;28;20455;-81
2022/07/28 03:31:04;;;;;;;2.95;1.42;;;11.90;99.90;;;;;;5042176;28;20049;-82
2022/07/28 03:33:31;;;;;;;2.97;1.48;;;11.90;99.90;;;;;;5051908;28;20029;-81
2022/07/28 03:36:01;;;;;;;1.58;1.38;;;11.90;99.90;;;;;;5024899;28;20037;-81
2022/07/28 03:38:34;;;;;;;2.45;1.52;;;11.90;99.90;;;;;;5015877;28;20029;-82
2022/07/28 03:41:01;;;;;;;1.30;1.17;;;11.90;99.90;;;;;;5038321;28;20043;-81
2022/07/28 03:43:27;;;;;;;3.00;1.25;;;11.90;99.90;;;;;;5038043;28;20052;-81
2022/07/28 03:45:53;;;;;;;1.85;1.30;;;12.00;99.90;;;;;;5045186;28;20033;-81
2022/07/28 03:48:22;;;;;;;2.83;1.20;;;11.90;99.90;;;;;;5042397;28;20033;-80
2022/07/28 03:50:48;;;;;;;1.83;1.38;;;12.00;99.90;;;;;;5037409;28;20025;-80
2022/07/28 03:53:25;;;;;;;1.85;1.40;;;11.90;99.90;;;;;;5041668;28;20377;-80
2022/07/28 03:55:52;;;;;;;2.50;2.30;;;11.90;99.90;;;;;;5046080;28;20500;-81
2022/07/28 03:58:23;;;;;;;1.77;1.40;;;11.90;99.90;;;;;;5036348;28;20040;-81
2022/07/28 04:00:49;;;;;;;1.85;1.63;;;11.90;99.90;;;;;;5035941;28;20388;-80
2022/07/28 04:03:19;;;;;;;2.33;1.25;;;11.90;99.90;;;;;;5040149;28;20075;-81
2022/07/28 04:05:46;;;;;;;1.42;1.33;;;12.00;99.90;;;;;;5037517;28;20052;-82
2022/07/28 04:08:12;;;;;;;1.77;1.67;;;11.90;99.90;;;;;;5045355;28;20033;-82
2022/07/28 04:10:38;;;;;;;4.07;1.77;;;11.90;99.90;;;;;;5016978;28;20389;-81
2022/07/28 04:13:04;;;;;;;2.60;1.55;;;11.90;99.90;;;;;;5035380;28;20047;-81
2022/07/28 04:15:31;;;;;;;1.98;1.70;;;11.90;99.90;;;;;;5009665;28;20072;-82
2022/07/28 04:17:58;;;;;;;3.33;1.50;;;12.00;99.90;;;;;;5007236;28;20037;-81
2022/07/28 04:20:25;;;;;;;11.27;7.03;;;12.00;99.90;;;;;;5015748;28;20522;-82
2022/07/28 04:22:52;;;;;;;6.80;4.97;;;12.10;99.90;;;;;;5031881;28;20147;-80
2022/07/28 04:25:20;;;;;;;6.05;5.00;;;12.10;99.90;;;;;;5032429;28;20061;-82
2022/07/28 04:27:46;;;;;;;5.25;3.63;;;12.10;99.90;;;;;;5015054;28;20652;-82
2022/07/28 04:30:17;;;;;;;4.68;3.10;;;12.10;99.90;;;;;;5035356;28;20025;-81
2022/07/28 04:32:44;;;;;;;2.20;1.95;;;12.10;99.90;;;;;;5045613;28;20112;-81
2022/07/28 04:35:11;;;;;;;2.15;1.70;;;12.20;99.90;;;;;;5051641;28;20053;-82
2022/07/28 04:37:38;;;;;;;3.13;1.90;;;12.20;99.90;;;;;;5048536;28;20447;-82
2022/07/28 04:40:06;;;;;;;1.80;1.70;;;12.30;99.90;;;;;;5026382;28;20047;-82
2022/07/28 04:42:32;;;;;;;2.53;1.75;;;12.40;99.90;;;;;;5024003;28;20041;-82
2022/07/28 04:44:59;;;;;;;1.55;1.45;;;12.50;99.90;;;;;;5047891;28;20034;-80
2022/07/28 04:47:27;;;;;;;4.38;2.08;;;12.50;99.90;;;;;;5029674;28;20029;-82
2022/07/28 04:49:53;;;;;;;4.38;1.85;;;12.60;99.90;;;;;;5032013;28;20114;-82
2022/07/28 04:52:19;;;;;;;3.08;1.60;;;12.70;99.90;;;;;;5043619;28;20480;-82
2022/07/28 04:54:45;;;;;;;1.65;1.55;;;12.70;99.90;;;;;;5040865;28;20033;-80
2022/07/28 04:57:11;;;;;;;1.60;1.40;;;12.80;99.90;;;;;;5042625;28;20048;-82
2022/07/28 04:59:37;;;;;;;3.13;1.70;;;12.80;99.90;;;;;;5031291;28;20444;-83
2022/07/28 05:02:03;;;;;;;2.95;1.70;;;12.80;99.90;;;;;;5038429;28;20030;-82
2022/07/28 05:04:29;;;;;;;3.13;1.60;;;12.90;99.90;;;;;;5014168;28;20506;-82
2022/07/28 05:06:55;;;;;;;3.60;1.73;;;12.90;99.90;;;;;;5032127;28;20064;-83
2022/07/28 05:09:20;;;;;;;2.92;1.58;;;12.90;99.90;;;;;;4985900;28;20060;-80
2022/07/28 05:11:46;;;;;;;2.95;1.60;;;12.90;99.90;;;;;;5043908;28;20052;-81
2022/07/28 05:14:12;;;;;;;2.25;1.75;;;13.00;99.90;;;;;;5048396;28;20048;-80
2022/07/28 05:16:38;;;;;;;3.72;1.80;;;13.00;99.90;;;;;;5050330;28;20044;-80
2022/07/28 05:19:04;;;;;;;2.90;1.45;;;13.10;99.90;;;;;;5043684;28;20041;-81
2022/07/28 05:21:29;;;;;;;1.52;1.40;;;13.20;99.90;;;;;;5039824;28;20036;-81
2022/07/28 05:23:55;;;;;;;2.55;1.40;;;13.30;99.90;;;;;;5012302;28;20382;-81
2022/07/28 05:26:21;;;;;;;1.52;1.30;;;13.50;99.90;;;;;;5037567;28;20076;-81
2022/07/28 05:28:46;;;;;;;2.33;1.35;;;13.60;99.90;;;;;;5041048;28;20037;-80
2022/07/28 05:31:13;;;;;;;1.45;1.27;;;13.80;99.90;;;;;;5038662;28;20086;-80
2022/07/28 05:33:39;;;;;;;1.67;1.30;;;14.00;99.90;;;;;;5034280;28;20105;-80
2022/07/28 05:36:05;;;;;;;2.38;1.48;;;14.20;99.90;;;;;;5021435;28;20065;-80
2022/07/28 05:38:31;;;;;;;1.52;1.42;;;14.40;99.90;;;;;;5036103;28;20030;-82
2022/07/28 05:40:58;;;;;;;1.70;1.58;;;14.60;99.90;;;;;;5020131;28;20050;-82
2022/07/28 05:43:23;;;;;;;2.78;1.38;;;14.90;99.90;;;;;;5032093;28;20453;-81
2022/07/28 05:45:49;;;;;;;2.50;2.10;;;15.20;99.90;;;;;;5035812;28;20029;-82
2022/07/28 05:48:19;;;;;;;5.20;1.40;;;15.60;99.90;;;;;;5009519;28;20092;-82
2022/07/28 05:50:45;;;;;;;3.15;1.50;;;16.00;99.90;;;;;;5005723;28;20026;-83
2022/07/28 05:53:11;;;;;;;2.53;1.15;;;16.30;99.80;;;;;;5028725;28;20021;-82
2022/07/28 05:55:37;;;;;;;2.42;1.15;;;16.70;99.20;;;;;;5010727;28;20026;-82
2022/07/28 05:58:03;;;;;;;3.13;1.30;;;17.20;98.60;;;;;;5028263;28;20052;-82
2022/07/28 06:00:31;;;;;;;1.85;1.38;;;17.60;98.00;;;;;;5032552;28;20037;-80
2022/07/28 06:03:00;;;;;;;1.48;1.30;;;17.90;96.40;;;;;;5028010;28;20040;-81
2022/07/28 06:05:27;;;;;;;1.85;1.23;;;18.40;95.20;;;;;;5006786;28;21065;-79
2022/07/28 06:07:55;;;;;;;3.03;1.20;;;18.70;93.50;;;;;;5031311;28;20056;-81
2022/07/28 06:10:23;;;;;;;2.72;1.70;;;19.00;91.60;;;;;;5009958;28;20736;-82
2022/07/28 06:12:54;;;;;;;1.90;1.20;;;19.30;90.70;;;;;;5036153;28;20033;-79
2022/07/28 06:15:22;;;;;;;3.35;0.93;;;19.60;90.30;;;;;;5035578;28;20488;-81
2022/07/28 06:17:54;;;;;;;3.15;1.70;;;19.90;87.70;;;;;;5039275;28;20029;-81
2022/07/28 06:20:23;;;;;;;3.13;1.08;;;20.10;88.40;;;;;;5027913;28;20114;-82
2022/07/28 06:22:51;;;;;;;4.22;1.27;;;20.30;88.20;;;;;;5037337;28;20025;-80
2022/07/28 06:25:26;;;;;;;1.10;0.95;;;20.70;84.60;;;;;;5042303;28;20037;-81
2022/07/28 06:27:54;;;;;;;2.75;2.45;;;21.20;83.70;;;;;;5043116;28;20037;-81
2022/07/28 06:30:44;;;;;;;3.55;1.08;;;21.60;80.40;;;;;;5040756;28;20108;-82
2022/07/28 06:33:09;;;;;;;3.35;1.13;;;21.90;76.80;;;;;;5056183;28;20089;-81
2022/07/28 06:35:35;;;;;;;1.48;1.08;;;22.20;72.80;;;;;;5051126;28;20045;-80
2022/07/28 06:38:01;;;;;;;3.08;1.00;;;22.30;69.70;;;;;;5051515;28;20050;-82
2022/07/28 06:40:27;;;;;;;2.50;0.90;;;22.20;70.20;;;;;;5042567;28;20121;-80
2022/07/28 06:42:52;;;;;;;3.08;0.88;;;22.40;71.70;;;;;;5038184;28;20523;-80
2022/07/28 06:45:19;;;;;;;3.53;0.90;;;22.60;71.40;;;;;;5038286;28;20025;-80
2022/07/28 06:47:45;;;;;;;3.03;1.08;;;22.90;68.90;;;;;;5047432;28;20041;-83
2022/07/28 06:50:11;;;;;;;3.38;1.30;;;23.30;65.20;;;;;;5048020;28;20112;-81
2022/07/28 06:52:37;;;;;;;5.05;1.20;;;23.40;64.10;;;;;;5040106;28;20031;-81
2022/07/28 06:55:04;;;;;;;1.15;0.93;;;23.60;65.50;;;;;;5024305;28;20068;-81
2022/07/28 06:57:33;;;;;;;1.10;0.90;;;23.60;62.00;;;;;;5045469;28;20025;-81
2022/07/28 07:00:01;;;;;;;3.00;1.10;;;23.80;60.10;;;;;;5052255;28;20041;-81
2022/07/28 07:02:27;;;;;;;4.28;1.10;;;23.70;59.90;;;;;;5037359;28;20120;-79
2022/07/28 07:04:53;;;;;;;1.35;0.95;;;24.00;58.70;;;;;;5049606;28;20455;-82
2022/07/28 07:07:20;;;;;;;3.88;1.05;;;24.30;60.10;;;;;;5025166;28;20036;-82
2022/07/28 07:09:46;;;;;;;2.97;0.90;;;24.50;57.80;;;;;;5014882;28;20076;-81
2022/07/28 07:12:11;;;;;;;2.60;1.00;;;24.60;56.90;;;;;;5037559;28;20439;-79
2022/07/28 07:14:37;;;;;;;7.43;1.25;;;24.50;56.50;;;;;;5044052;28;20051;-80
2022/07/28 07:17:03;;;;;;;3.20;2.13;;;24.70;57.00;;;;;;5036955;28;20037;-80
2022/07/28 07:19:28;;;;;;;3.92;1.65;;;24.80;56.10;;;;;;5017697;28;20036;-79
2022/07/28 07:21:54;;;;;;;3.55;0.95;;;24.80;56.00;;;;;;5000505;28;20037;-80
2022/07/28 07:24:20;;;;;;;2.67;1.00;;;25.00;54.70;;;;;;5022950;28;20033;-78
2022/07/28 07:26:46;;;;;;;4.03;1.20;;;25.00;53.30;;;;;;5010428;28;20106;-81
2022/07/28 07:29:12;;;;;;;1.33;0.80;;;25.10;52.10;;;;;;5021287;28;20029;-80
2022/07/28 07:31:38;;;;;;;1.48;1.20;;;25.00;51.90;;;;;;5033214;28;20033;-79
2022/07/28 07:34:05;;;;;;;3.67;1.23;;;25.00;53.10;;;;;;5036904;28;20060;-82
2022/07/28 07:36:31;;;;;;;1.65;1.35;;;25.00;51.70;;;;;;5039206;28;20025;-80
2022/07/28 07:38:58;;;;;;;4.75;1.40;;;25.10;52.70;;;;;;5035144;28;20033;-80
2022/07/28 07:41:23;;;;;;;2.72;1.20;;;25.30;51.30;;;;;;5040354;28;20118;-79
2022/07/28 07:43:49;;;;;;;2.55;1.27;;;25.60;51.60;;;;;;5047600;28;20033;-80
2022/07/28 07:46:15;;;;;;;5.20;1.63;;;25.80;50.20;;;;;;5041625;28;20075;-81
2022/07/28 07:48:41;;;;;;;4.45;1.67;;;25.90;50.90;;;;;;5041977;28;20119;-81
2022/07/28 07:51:07;;;;;;;2.58;1.40;;;26.10;50.10;;;;;;5023231;28;20033;-80
2022/07/28 07:53:33;;;;;;;3.60;1.65;;;25.90;50.10;;;;;;5040563;28;20096;-81
2022/07/28 07:55:59;;;;;;;1.98;1.60;;;25.90;50.70;;;;;;5033776;28;20045;-82
2022/07/28 07:58:25;;;;;;;2.85;1.85;;;25.70;49.30;;;;;;5033440;28;20068;-81
2022/07/28 08:00:52;;;;;;;3.00;1.70;;;25.30;50.20;;;;;;5013424;28;20038;-79
2022/07/28 08:03:18;;;;;;;3.75;2.10;;;25.10;50.80;;;;;;5031187;28;20034;-81
2022/07/28 08:05:44;;;;;;;2.88;1.70;;;24.80;51.30;;;;;;5034142;28;20025;-81
2022/07/28 08:08:10;;;;;;;3.08;1.90;;;24.80;52.70;;;;;;5034162;28;20036;-79
2022/07/28 08:10:38;;;;;;;2.38;1.73;;;24.60;50.90;;;;;;5034691;28;20042;-82
2022/07/28 08:13:05;;;;;;;6.63;2.13;;;24.20;51.50;;;;;;5036096;28;20036;-82
2022/07/28 08:15:32;;;;;;;1.88;1.58;;;24.00;52.00;;;;;;5045165;28;20967;-82
2022/07/28 08:17:58;;;;;;;2.67;1.80;;;23.70;53.00;;;;;;5046349;28;20057;-81
2022/07/28 08:20:24;;;;;;;4.13;2.05;;;23.40;53.30;;;;;;5044342;28;20041;-82
2022/07/28 08:22:52;;;;;;;5.70;1.92;;;23.30;54.40;;;;;;5044764;28;20117;-81
2022/07/28 08:25:18;;;;;;;2.30;1.67;;;23.30;55.00;;;;;;5043089;28;20021;-81
2022/07/28 08:27:44;;;;;;;4.82;2.55;;;23.40;55.00;;;;;;5040288;28;20438;-82
2022/07/28 08:30:11;;;;;;;2.13;1.45;;;23.30;53.10;;;;;;5052610;28;20040;-82
2022/07/28 08:32:37;;;;;;;4.00;2.00;;;23.30;54.30;;;;;;5050615;28;20675;-81
2022/07/28 08:35:04;;;;;;;2.38;1.70;;;23.40;54.40;;;;;;5043217;28;20058;-81
2022/07/28 08:37:29;;;;;;;3.28;1.83;;;23.40;54.20;;;;;;5047671;28;20043;-83
2022/07/28 08:39:55;;;;;;;3.05;1.65;;;23.60;54.40;;;;;;5043429;28;20026;-81
2022/07/28 08:43:03;;;;;;;5.25;1.83;;;23.50;53.40;;;;;;5044146;28;20052;-82
2022/07/28 08:45:30;;;;;;;3.30;2.00;;;23.50;53.50;;;;;;5036325;28;20054;-80
2022/07/28 08:47:57;;;;;;;5.10;2.28;;;23.50;54.40;;;;;;5033769;28;20072;-81
2022/07/28 08:50:23;;;;;;;4.22;1.58;;;23.20;54.60;;;;;;5027823;28;20032;-80
2022/07/28 08:52:52;;;;;;;2.72;1.70;;;23.10;55.10;;;;;;5026967;28;20121;-81
2022/07/28 08:55:23;;;;;;;4.97;2.15;;;23.10;54.50;;;;;;5009483;28;20060;-82
2022/07/28 08:57:53;;;;;;;3.15;1.88;;;23.00;54.60;;;;;;5042275;28;20034;-83
2022/07/28 09:00:21;;;;;;;3.70;2.25;;;23.10;55.60;;;;;;5012943;28;20043;-81
2022/07/28 09:02:49;;;;;;;4.28;2.20;;;23.10;56.10;;;;;;5014189;28;20119;-81
2022/07/28 09:05:15;;;;;;;3.33;1.80;;;23.20;56.30;;;;;;5041426;28;20025;-83
2022/07/28 09:07:43;;;;;;;4.18;1.95;;;23.20;55.20;;;;;;5032209;28;20021;-77
2022/07/28 09:10:10;;;;;;;4.60;2.08;;;23.10;55.40;;;;;;5041685;28;20695;-82
2022/07/28 09:12:38;;;;;;;3.67;2.10;;;23.20;55.70;;;;;;5040360;28;20025;-80
2022/07/28 09:15:06;;;;;;;3.33;2.20;;;23.10;54.20;;;;;;5043039;28;20075;-79
2022/07/28 09:17:33;;;;;;;4.78;2.00;;;23.10;54.60;;;;;;5037086;28;20110;-81
2022/07/28 09:20:00;;;;;;;4.18;1.40;;;23.00;55.10;;;;;;5037776;28;20106;-81
2022/07/28 09:22:26;;;;;;;2.65;1.40;;;23.10;54.60;;;;;;5047726;28;20071;-81
2022/07/28 09:24:52;;;;;;;2.95;1.55;;;23.20;54.90;;;;;;5039821;28;20025;-83
2022/07/28 09:27:18;;;;;;;2.05;1.48;;;23.10;55.40;;;;;;5027813;28;20030;-81
2022/07/28 09:29:47;;;;;;;3.92;1.85;;;23.10;55.10;;;;;;5043691;28;20099;-81
2022/07/28 09:32:15;;;;;;;5.40;2.35;;;23.10;54.20;;;;;;5044728;28;20130;-82
2022/07/28 09:34:46;;;;;;;2.95;1.95;;;23.10;54.50;;;;;;5047801;28;20034;-81
2022/07/28 09:37:20;;;;;;;5.00;2.00;;;23.20;56.50;;;;;;5016766;28;20021;-82
2022/07/28 09:39:47;;;;;;;5.10;1.95;;;23.30;55.40;;;;;;5006683;28;20048;-81
2022/07/28 09:42:14;;;;;;;4.72;2.28;;;23.50;57.60;;;;;;5021464;28;20707;-81
2022/07/28 09:44:40;;;;;;;2.72;1.95;;;23.70;54.60;;;;;;5033370;28;20100;-79
2022/07/28 09:47:27;;;;;;;2.88;2.30;;;23.80;54.70;;;;;;5041898;28;20030;-78
2022/07/28 09:49:53;;;;;;;5.68;2.20;;;23.90;53.60;;;;;;5039887;28;20083;-77
2022/07/28 09:52:29;;;;;;;4.90;2.20;;;24.00;54.10;;;;;;5045816;28;20061;-78
2022/07/28 09:55:08;;;;;;;3.38;1.58;;;24.00;53.20;;;;;;5042294;28;20222;-79
2022/07/28 09:57:35;;;;;;;3.47;1.75;;;24.00;54.50;;;;;;5050498;28;20038;-78
2022/07/28 10:00:06;;;;;;;3.42;1.85;;;23.90;54.50;;;;;;5047579;28;20112;-78
2022/07/28 10:02:37;;;;;;;3.53;2.03;;;23.90;54.20;;;;;;5055369;28;20045;-78
2022/07/28 10:05:04;;;;;;;2.25;1.33;;;23.90;53.00;;;;;;5054101;28;20029;-79
2022/07/28 10:07:30;;;;;;;3.10;1.50;;;23.80;52.20;;;;;;5052617;28;20029;-80
2022/07/28 10:10:00;;;;;;;2.08;1.25;;;23.80;52.10;;;;;;5004381;28;20044;-78
2022/07/28 10:12:31;;;;;;;3.42;1.60;;;23.80;53.50;;;;;;5047968;28;20040;-78
2022/07/28 10:18:03;;;;;;;1.85;1.63;;;23.80;51.80;;;;;;5046336;28;20063;-79
2022/07/28 10:20:31;;;;;;;5.85;2.17;;;23.80;55.10;;;;;;5029535;28;20038;-77
2022/07/28 10:23:10;;;;;;;4.30;1.75;;;23.70;52.20;;;;;;5041363;28;20061;-79
2022/07/28 10:25:39;;;;;;;2.88;1.58;;;23.60;54.80;;;;;;5034102;28;20076;-78
2022/07/28 10:28:06;;;;;;;5.55;1.92;;;23.70;53.90;;;;;;5031556;28;20567;-79
2022/07/28 10:30:39;;;;;;;2.53;1.73;;;23.60;52.50;;;;;;5027846;28;20055;-77
2022/07/28 10:33:13;;;;;;;2.38;1.60;;;23.50;52.70;;;;;;5038267;28;20089;-77
2022/07/28 10:35:39;;;;;;;2.55;1.60;;;23.50;53.30;;;;;;5035957;28;20037;-77
2022/07/28 10:38:12;;;;;;;2.50;1.63;;;23.50;53.60;;;;;;5033769;28;20847;-80
2022/07/28 10:40:46;;;;;;;3.50;1.92;;;23.50;53.70;;;;;;5033996;28;20029;-77
2022/07/28 10:43:12;;;;;;;2.25;1.67;;;23.70;53.10;;;;;;5018995;28;20124;-78
2022/07/28 10:45:39;;;;;;;2.50;1.35;;;23.70;53.20;;;;;;5015428;28;20395;-77
2022/07/28 10:48:07;;;;;;;2.80;1.50;;;23.90;53.10;;;;;;5032344;28;20030;-78
2022/07/28 10:50:35;;;;;;;4.43;1.60;;;24.00;52.70;;;;;;5028102;28;20029;-77
2022/07/28 10:53:08;;;;;;;2.95;1.83;;;24.00;52.70;;;;;;5013565;28;20112;-78
2022/07/28 10:55:49;;;;;;;2.30;1.77;;;24.00;51.10;;;;;;5045149;28;20025;-78
2022/07/28 10:58:52;;;;;;;3.30;1.92;;;24.00;51.60;;;;;;5042178;28;20075;-77
2022/07/28 11:01:38;;;;;;;2.75;1.60;;;23.80;52.70;;;;;;5042869;28;20029;-77
2022/07/28 11:04:05;;;;;;;4.82;1.48;;;23.90;51.90;;;;;;5017608;28;20045;-78
2022/07/28 11:06:44;;;;;;;2.90;1.58;;;24.00;53.20;;;;;;5037850;28;20037;-77
2022/07/28 11:09:16;;;;;;;3.30;1.50;;;24.00;51.30;;;;;;5039972;28;20107;-78
2022/07/28 11:11:50;;;;;;;2.72;1.50;;;24.00;51.40;;;;;;5024461;28;20543;-77
2022/07/28 11:14:22;;;;;;;3.72;1.48;;;24.00;51.30;;;;;;5033245;28;20117;-77
2022/07/28 11:16:49;;;;;;;2.42;1.60;;;24.10;52.30;;;;;;5033248;28;20037;-77
2022/07/28 11:19:17;;;;;;;2.03;1.65;;;24.10;51.70;;;;;;5035968;28;20028;-79
2022/07/28 11:22:20;;;;;;;2.70;1.60;;;24.20;50.70;;;;;;5036783;28;20044;-77
2022/07/28 11:25:01;;;;;;;4.15;2.13;;;24.30;51.10;;;;;;5018317;28;20080;-80
2022/07/28 11:27:44;;;;;;;2.40;1.48;;;24.30;51.00;;;;;;5009051;28;20028;-82
2022/07/28 11:30:31;;;;;;;3.15;1.80;;;24.30;51.60;;;;;;5009255;28;20036;-83
2022/07/28 11:32:58;;;;;;;3.63;2.05;;;24.40;51.50;;;;;;5024961;28;20711;-83
2022/07/28 11:35:26;;;;;;;2.10;1.73;;;24.50;51.60;;;;;;5027796;28;20136;-81
2022/07/28 11:38:00;;;;;;;3.70;1.23;;;24.50;51.70;;;;;;5026724;28;20044;-83
2022/07/28 11:40:30;;;;;;;2.13;1.67;;;24.50;51.50;;;;;;5019425;28;20064;-80
2022/07/28 11:43:25;;;;;;;3.67;1.90;;;24.60;50.90;;;;;;5049159;28;20090;-83
2022/07/28 11:46:10;;;;;;;3.13;1.40;;;24.50;50.90;;;;;;5024709;28;20026;-83
2022/07/28 11:48:43;;;;;;;5.35;1.52;;;24.70;51.50;;;;;;5020739;28;20029;-82
2022/07/28 11:51:10;;;;;;;3.47;1.90;;;24.70;51.90;;;;;;4993119;28;20496;-82
2022/07/28 11:53:36;;;;;;;2.63;1.52;;;24.90;50.60;;;;;;5048753;28;20064;-83
2022/07/28 11:56:07;;;;;;;1.65;1.55;;;24.90;50.60;;;;;;5019333;28;20025;-82
2022/07/28 11:58:33;;;;;;;2.65;1.70;;;25.00;51.50;;;;;;4991579;28;20503;-83
2022/07/28 12:01:17;;;;;;;3.72;1.73;;;25.20;50.90;;;;;;5020927;28;20041;-83
2022/07/28 12:03:45;;;;;;;3.33;1.77;;;25.40;50.60;;;;;;5017102;28;20052;-83
2022/07/28 12:06:13;;;;;;;3.05;1.70;;;25.60;50.80;;;;;;5017504;28;20037;-83
2022/07/28 12:08:50;;;;;;;2.58;1.60;;;25.60;50.00;;;;;;5019136;28;20516;-83
2022/07/28 12:11:17;;;;;;;1.42;1.30;;;25.60;50.00;;;;;;4984296;28;20018;-85
2022/07/28 12:13:43;;;;;;;3.90;1.65;;;25.70;49.80;;;;;;5016528;28;20053;-82
2022/07/28 12:16:09;;;;;;;3.75;1.95;;;25.90;48.90;;;;;;5016690;28;20083;-82
2022/07/28 12:18:35;;;;;;;1.48;1.38;;;25.80;48.90;;;;;;5006710;28;20053;-82
2022/07/28 12:21:01;;;;;;;1.67;1.58;;;25.80;48.30;;;;;;5008283;28;20484;-83
2022/07/28 12:23:36;;;;;;;1.40;1.30;;;25.80;50.60;;;;;;5022249;28;20028;-82
2022/07/28 12:26:05;;;;;;;2.58;1.65;;;26.00;50.00;;;;;;5029161;28;20076;-82
2022/07/28 12:28:31;;;;;;;2.63;1.60;;;25.90;47.70;;;;;;5021770;28;20101;-82
2022/07/28 12:31:11;;;;;;;1.85;1.38;;;25.80;50.00;;;;;;5003564;28;20803;-83
2022/07/28 12:33:37;;;;;;;1.38;1.27;;;26.00;50.20;;;;;;5025424;28;20041;-82
2022/07/28 12:36:04;;;;;;;1.50;1.40;;;26.10;48.70;;;;;;5000890;28;20029;-83
2022/07/28 12:38:30;;;;;;;2.38;1.58;;;26.40;47.40;;;;;;5027194;28;20029;-82
2022/07/28 12:40:56;;;;;;;3.67;1.52;;;26.30;46.70;;;;;;5038806;28;20125;-82
2022/07/28 12:43:26;;;;;;;3.72;1.80;;;26.30;47.70;;;;;;5017251;28;20105;-82
2022/07/28 12:45:52;;;;;;;2.33;1.50;;;26.30;46.80;;;;;;5004627;28;20044;-79
2022/07/28 12:48:19;;;;;;;2.42;1.30;;;26.40;47.40;;;;;;5029224;28;20026;-82
2022/07/28 12:50:45;;;;;;;2.95;1.70;;;26.40;47.30;;;;;;5026842;28;20080;-82
2022/07/28 12:53:12;;;;;;;2.65;1.70;;;26.50;47.10;;;;;;5034115;28;20458;-81
2022/07/28 12:55:42;;;;;;;2.08;1.42;;;26.60;47.20;;;;;;5031741;28;20048;-82
2022/07/28 12:58:23;;;;;;;2.58;1.42;;;26.70;47.70;;;;;;5032711;28;20037;-82
2022/07/28 13:00:50;;;;;;;1.80;1.30;;;26.90;46.70;;;;;;5031613;28;20039;-83
2022/07/28 13:03:23;;;;;;;1.70;1.55;;;27.30;47.80;;;;;;5005478;28;20036;-83